sensor_id;sensor_type;location;lat;lon;timestamp;temperature;humidity
59961;DHT22;55902;-37.980;-63.602;2022-08-19T00:02:12;9.50;48.60
59961;DHT22;55902;-37.980;-63.602;2022-08-19T00:04:39;9.40;48.50
59961;DHT22;55902;-37.980;-63.602;2022-08-19T00:07:07;9.30;49.50
59961;DHT22;55902;-37.980;-63.602;2022-08-19T00:09:34;9.30;49.70
59961;DHT22;55902;-37.980;-63.602;2022-08-19T00:12:01;9.20;49.60
59961;DHT22;55902;-37.980;-63.602;2022-08-19T00:14:29;9.10;50.50
59961;DHT22;55902;-37.980;-63.602;2022-08-19T00:17:08;9.00;50.50
59961;DHT22;55902;-37.980;-63.602;2022-08-19T00:19:36;9.00;50.80
59961;DHT22;55902;-37.980;-63.602;2022-08-19T00:22:04;9.00;53.20
59961;DHT22;55902;-37.980;-63.602;2022-08-19T00:24:31;8.90;51.10
59961;DHT22;55902;-37.980;-63.602;2022-08-19T00:26:58;8.90;50.50
59961;DHT22;55902;-37.980;-63.602;2022-08-19T00:29:26;8.80;51.10
59961;DHT22;55902;-37.980;-63.602;2022-08-19T00:31:53;8.80;51.60
59961;DHT22;55902;-37.980;-63.602;2022-08-19T00:34:23;8.80;51.10
59961;DHT22;55902;-37.980;-63.602;2022-08-19T00:36:50;8.80;51.20
59961;DHT22;55902;-37.980;-63.602;2022-08-19T00:39:17;8.80;51.20
59961;DHT22;55902;-37.980;-63.602;2022-08-19T00:41:45;8.80;50.80
59961;DHT22;55902;-37.980;-63.602;2022-08-19T00:44:21;8.80;50.50
59961;DHT22;55902;-37.980;-63.602;2022-08-19T00:46:50;8.80;51.50
59961;DHT22;55902;-37.980;-63.602;2022-08-19T00:51:55;8.90;51.50
59961;DHT22;55902;-37.980;-63.602;2022-08-19T00:54:23;9.00;52.10
59961;DHT22;55902;-37.980;-63.602;2022-08-19T00:56:51;8.90;52.50
59961;DHT22;55902;-37.980;-63.602;2022-08-19T00:59:21;8.90;52.90
59961;DHT22;55902;-37.980;-63.602;2022-08-19T01:01:48;8.80;52.40
59961;DHT22;55902;-37.980;-63.602;2022-08-19T01:04:15;8.70;52.90
59961;DHT22;55902;-37.980;-63.602;2022-08-19T01:06:42;8.70;53.50
59961;DHT22;55902;-37.980;-63.602;2022-08-19T01:09:09;8.70;52.50
59961;DHT22;55902;-37.980;-63.602;2022-08-19T01:11:40;8.60;53.00
59961;DHT22;55902;-37.980;-63.602;2022-08-19T01:14:08;8.50;52.50
59961;DHT22;55902;-37.980;-63.602;2022-08-19T01:16:36;8.50;53.60
59961;DHT22;55902;-37.980;-63.602;2022-08-19T01:19:31;8.50;53.50
59961;DHT22;55902;-37.980;-63.602;2022-08-19T01:24:51;8.40;54.30
59961;DHT22;55902;-37.980;-63.602;2022-08-19T01:27:18;8.40;55.00
59961;DHT22;55902;-37.980;-63.602;2022-08-19T01:29:45;8.30;55.20
59961;DHT22;55902;-37.980;-63.602;2022-08-19T01:32:15;8.30;54.10
59961;DHT22;55902;-37.980;-63.602;2022-08-19T01:34:43;8.20;53.80
59961;DHT22;55902;-37.980;-63.602;2022-08-19T01:37:17;8.10;55.20
59961;DHT22;55902;-37.980;-63.602;2022-08-19T01:39:43;8.00;55.40
59961;DHT22;55902;-37.980;-63.602;2022-08-19T01:42:10;7.80;55.10
59961;DHT22;55902;-37.980;-63.602;2022-08-19T01:44:40;7.60;57.00
59961;DHT22;55902;-37.980;-63.602;2022-08-19T01:47:12;7.50;57.50
59961;DHT22;55902;-37.980;-63.602;2022-08-19T01:49:39;7.30;58.30
59961;DHT22;55902;-37.980;-63.602;2022-08-19T01:52:11;7.30;56.20
59961;DHT22;55902;-37.980;-63.602;2022-08-19T01:54:38;7.20;57.30
59961;DHT22;55902;-37.980;-63.602;2022-08-19T01:57:08;7.10;57.90
59961;DHT22;55902;-37.980;-63.602;2022-08-19T01:59:35;7.00;57.20
59961;DHT22;55902;-37.980;-63.602;2022-08-19T02:02:06;6.90;58.30
59961;DHT22;55902;-37.980;-63.602;2022-08-19T02:04:37;6.80;57.60
59961;DHT22;55902;-37.980;-63.602;2022-08-19T02:07:06;6.70;57.30
59961;DHT22;55902;-37.980;-63.602;2022-08-19T02:09:34;6.70;56.80
59961;DHT22;55902;-37.980;-63.602;2022-08-19T02:12:01;6.70;56.00
59961;DHT22;55902;-37.980;-63.602;2022-08-19T02:14:28;6.70;58.20
59961;DHT22;55902;-37.980;-63.602;2022-08-19T02:16:59;6.70;57.40
59961;DHT22;55902;-37.980;-63.602;2022-08-19T02:19:26;6.70;58.80
59961;DHT22;55902;-37.980;-63.602;2022-08-19T02:22:03;6.70;57.20
59961;DHT22;55902;-37.980;-63.602;2022-08-19T02:24:30;6.60;58.90
59961;DHT22;55902;-37.980;-63.602;2022-08-19T02:26:57;6.50;61.40
59961;DHT22;55902;-37.980;-63.602;2022-08-19T02:29:29;6.50;59.90
59961;DHT22;55902;-37.980;-63.602;2022-08-19T02:31:55;6.50;60.20
59961;DHT22;55902;-37.980;-63.602;2022-08-19T02:34:26;6.50;59.60
59961;DHT22;55902;-37.980;-63.602;2022-08-19T02:36:53;6.40;59.90
59961;DHT22;55902;-37.980;-63.602;2022-08-19T02:39:24;6.40;59.50
59961;DHT22;55902;-37.980;-63.602;2022-08-19T02:41:52;6.40;59.70
59961;DHT22;55902;-37.980;-63.602;2022-08-19T02:44:23;6.50;60.40
59961;DHT22;55902;-37.980;-63.602;2022-08-19T02:46:50;6.50;60.10
59961;DHT22;55902;-37.980;-63.602;2022-08-19T02:49:21;6.50;59.70
59961;DHT22;55902;-37.980;-63.602;2022-08-19T02:51:48;6.60;59.60
59961;DHT22;55902;-37.980;-63.602;2022-08-19T02:54:15;6.70;58.70
59961;DHT22;55902;-37.980;-63.602;2022-08-19T02:56:43;6.70;59.70
59961;DHT22;55902;-37.980;-63.602;2022-08-19T02:59:11;6.70;60.90
59961;DHT22;55902;-37.980;-63.602;2022-08-19T03:01:42;6.70;59.10
59961;DHT22;55902;-37.980;-63.602;2022-08-19T03:04:14;6.70;58.20
59961;DHT22;55902;-37.980;-63.602;2022-08-19T03:06:44;6.60;59.40
59961;DHT22;55902;-37.980;-63.602;2022-08-19T03:09:12;6.60;58.40
59961;DHT22;55902;-37.980;-63.602;2022-08-19T03:11:40;6.60;58.70
59961;DHT22;55902;-37.980;-63.602;2022-08-19T03:14:07;6.60;59.70
59961;DHT22;55902;-37.980;-63.602;2022-08-19T03:16:42;6.50;60.00
59961;DHT22;55902;-37.980;-63.602;2022-08-19T03:19:13;6.50;59.90
59961;DHT22;55902;-37.980;-63.602;2022-08-19T03:21:41;6.50;61.00
59961;DHT22;55902;-37.980;-63.602;2022-08-19T03:24:15;6.50;61.50
59961;DHT22;55902;-37.980;-63.602;2022-08-19T03:26:46;6.50;63.20
59961;DHT22;55902;-37.980;-63.602;2022-08-19T03:29:18;6.40;62.60
59961;DHT22;55902;-37.980;-63.602;2022-08-19T03:31:45;6.50;62.30
59961;DHT22;55902;-37.980;-63.602;2022-08-19T03:34:15;6.40;63.10
59961;DHT22;55902;-37.980;-63.602;2022-08-19T03:36:48;6.30;63.60
59961;DHT22;55902;-37.980;-63.602;2022-08-19T03:39:16;6.40;63.10
59961;DHT22;55902;-37.980;-63.602;2022-08-19T03:41:45;6.30;64.20
59961;DHT22;55902;-37.980;-63.602;2022-08-19T03:44:18;6.50;63.80
59961;DHT22;55902;-37.980;-63.602;2022-08-19T03:46:50;6.50;64.60
59961;DHT22;55902;-37.980;-63.602;2022-08-19T03:49:23;6.50;65.00
59961;DHT22;55902;-37.980;-63.602;2022-08-19T03:51:50;6.50;66.10
59961;DHT22;55902;-37.980;-63.602;2022-08-19T03:54:23;6.40;66.80
59961;DHT22;55902;-37.980;-63.602;2022-08-19T03:56:53;6.40;66.20
59961;DHT22;55902;-37.980;-63.602;2022-08-19T03:59:27;6.20;67.50
59961;DHT22;55902;-37.980;-63.602;2022-08-19T04:02:00;6.10;67.20
59961;DHT22;55902;-37.980;-63.602;2022-08-19T04:04:27;6.10;67.70
59961;DHT22;55902;-37.980;-63.602;2022-08-19T04:06:55;6.10;67.30
59961;DHT22;55902;-37.980;-63.602;2022-08-19T04:09:27;6.10;67.20
59961;DHT22;55902;-37.980;-63.602;2022-08-19T04:11:55;5.80;70.20
59961;DHT22;55902;-37.980;-63.602;2022-08-19T04:14:28;5.80;70.60
59961;DHT22;55902;-37.980;-63.602;2022-08-19T04:17:01;5.80;70.30
59961;DHT22;55902;-37.980;-63.602;2022-08-19T04:19:31;5.70;70.70
59961;DHT22;55902;-37.980;-63.602;2022-08-19T04:22:03;5.60;71.50
59961;DHT22;55902;-37.980;-63.602;2022-08-19T04:24:34;5.50;72.50
59961;DHT22;55902;-37.980;-63.602;2022-08-19T04:27:02;5.30;73.50
59961;DHT22;55902;-37.980;-63.602;2022-08-19T04:29:33;5.30;73.70
59961;DHT22;55902;-37.980;-63.602;2022-08-19T04:32:00;5.40;72.20
59961;DHT22;55902;-37.980;-63.602;2022-08-19T04:34:31;5.30;74.20
59961;DHT22;55902;-37.980;-63.602;2022-08-19T04:37:06;5.30;72.90
59961;DHT22;55902;-37.980;-63.602;2022-08-19T04:39:39;5.20;73.80
59961;DHT22;55902;-37.980;-63.602;2022-08-19T04:42:24;5.30;72.60
59961;DHT22;55902;-37.980;-63.602;2022-08-19T04:45:13;5.30;72.70
59961;DHT22;55902;-37.980;-63.602;2022-08-19T04:47:42;5.30;73.20
59961;DHT22;55902;-37.980;-63.602;2022-08-19T04:50:14;5.30;73.10
59961;DHT22;55902;-37.980;-63.602;2022-08-19T04:52:46;5.30;73.90
59961;DHT22;55902;-37.980;-63.602;2022-08-19T04:55:13;5.10;74.90
59961;DHT22;55902;-37.980;-63.602;2022-08-19T04:57:40;5.20;73.50
59961;DHT22;55902;-37.980;-63.602;2022-08-19T05:00:09;5.20;74.70
59961;DHT22;55902;-37.980;-63.602;2022-08-19T05:02:40;5.20;75.40
59961;DHT22;55902;-37.980;-63.602;2022-08-19T05:05:12;5.20;73.80
59961;DHT22;55902;-37.980;-63.602;2022-08-19T05:07:39;5.20;74.90
59961;DHT22;55902;-37.980;-63.602;2022-08-19T05:10:10;5.20;72.40
59961;DHT22;55902;-37.980;-63.602;2022-08-19T05:12:37;5.20;73.70
59961;DHT22;55902;-37.980;-63.602;2022-08-19T05:15:09;5.20;74.40
59961;DHT22;55902;-37.980;-63.602;2022-08-19T05:17:37;5.20;73.40
59961;DHT22;55902;-37.980;-63.602;2022-08-19T05:20:05;5.10;74.10
59961;DHT22;55902;-37.980;-63.602;2022-08-19T05:22:56;5.10;73.90
59961;DHT22;55902;-37.980;-63.602;2022-08-19T05:25:23;5.10;73.10
59961;DHT22;55902;-37.980;-63.602;2022-08-19T05:27:50;5.10;72.80
59961;DHT22;55902;-37.980;-63.602;2022-08-19T05:30:17;5.00;74.80
59961;DHT22;55902;-37.980;-63.602;2022-08-19T05:32:44;4.80;76.70
59961;DHT22;55902;-37.980;-63.602;2022-08-19T05:35:14;4.80;77.10
59961;DHT22;55902;-37.980;-63.602;2022-08-19T05:37:41;4.70;78.70
59961;DHT22;55902;-37.980;-63.602;2022-08-19T05:40:12;4.60;78.70
59961;DHT22;55902;-37.980;-63.602;2022-08-19T05:42:39;4.60;78.80
59961;DHT22;55902;-37.980;-63.602;2022-08-19T05:45:09;4.60;78.40
59961;DHT22;55902;-37.980;-63.602;2022-08-19T05:47:36;4.60;78.60
59961;DHT22;55902;-37.980;-63.602;2022-08-19T05:50:07;4.40;80.40
59961;DHT22;55902;-37.980;-63.602;2022-08-19T05:52:34;4.40;80.50
59961;DHT22;55902;-37.980;-63.602;2022-08-19T05:55:04;4.40;80.30
59961;DHT22;55902;-37.980;-63.602;2022-08-19T05:57:31;4.50;78.10
59961;DHT22;55902;-37.980;-63.602;2022-08-19T06:00:05;4.60;77.70
59961;DHT22;55902;-37.980;-63.602;2022-08-19T06:02:36;4.60;78.80
59961;DHT22;55902;-37.980;-63.602;2022-08-19T06:05:07;4.50;78.80
59961;DHT22;55902;-37.980;-63.602;2022-08-19T06:07:36;4.40;79.30
59961;DHT22;55902;-37.980;-63.602;2022-08-19T06:10:09;4.40;79.80
59961;DHT22;55902;-37.980;-63.602;2022-08-19T06:12:37;4.40;79.50
59961;DHT22;55902;-37.980;-63.602;2022-08-19T06:15:11;4.50;78.00
59961;DHT22;55902;-37.980;-63.602;2022-08-19T06:17:40;4.50;78.10
59961;DHT22;55902;-37.980;-63.602;2022-08-19T06:20:11;4.40;79.10
59961;DHT22;55902;-37.980;-63.602;2022-08-19T06:22:43;4.40;78.60
59961;DHT22;55902;-37.980;-63.602;2022-08-19T06:25:15;4.30;79.70
59961;DHT22;55902;-37.980;-63.602;2022-08-19T06:27:45;4.30;80.00
59961;DHT22;55902;-37.980;-63.602;2022-08-19T06:30:13;4.30;80.40
59961;DHT22;55902;-37.980;-63.602;2022-08-19T06:32:40;4.30;80.80
59961;DHT22;55902;-37.980;-63.602;2022-08-19T06:35:11;4.30;80.80
59961;DHT22;55902;-37.980;-63.602;2022-08-19T06:37:41;4.30;81.60
59961;DHT22;55902;-37.980;-63.602;2022-08-19T06:40:09;4.20;82.50
59961;DHT22;55902;-37.980;-63.602;2022-08-19T06:42:37;4.30;80.10
59961;DHT22;55902;-37.980;-63.602;2022-08-19T06:45:09;4.40;80.60
59961;DHT22;55902;-37.980;-63.602;2022-08-19T06:47:39;4.40;79.60
59961;DHT22;55902;-37.980;-63.602;2022-08-19T06:50:06;4.50;78.30
59961;DHT22;55902;-37.980;-63.602;2022-08-19T06:52:37;4.50;78.60
59961;DHT22;55902;-37.980;-63.602;2022-08-19T06:55:05;4.60;77.60
59961;DHT22;55902;-37.980;-63.602;2022-08-19T06:57:35;4.60;78.40
59961;DHT22;55902;-37.980;-63.602;2022-08-19T07:00:06;4.60;78.70
59961;DHT22;55902;-37.980;-63.602;2022-08-19T07:02:37;4.60;79.60
59961;DHT22;55902;-37.980;-63.602;2022-08-19T07:05:04;4.60;79.50
59961;DHT22;55902;-37.980;-63.602;2022-08-19T07:07:32;4.60;78.90
59961;DHT22;55902;-37.980;-63.602;2022-08-19T07:10:04;4.70;77.90
59961;DHT22;55902;-37.980;-63.602;2022-08-19T07:12:32;4.70;76.40
59961;DHT22;55902;-37.980;-63.602;2022-08-19T07:14:59;4.70;79.20
59961;DHT22;55902;-37.980;-63.602;2022-08-19T07:17:31;4.80;75.60
59961;DHT22;55902;-37.980;-63.602;2022-08-19T07:19:59;4.90;73.40
59961;DHT22;55902;-37.980;-63.602;2022-08-19T07:22:29;5.00;73.20
59961;DHT22;55902;-37.980;-63.602;2022-08-19T07:24:57;5.00;72.60
59961;DHT22;55902;-37.980;-63.602;2022-08-19T07:27:24;5.00;73.10
59961;DHT22;55902;-37.980;-63.602;2022-08-19T07:29:52;5.10;72.50
59961;DHT22;55902;-37.980;-63.602;2022-08-19T07:32:19;5.10;71.50
59961;DHT22;55902;-37.980;-63.602;2022-08-19T07:34:46;5.10;72.00
59961;DHT22;55902;-37.980;-63.602;2022-08-19T07:37:16;5.20;71.90
59961;DHT22;55902;-37.980;-63.602;2022-08-19T07:39:43;5.20;72.50
59961;DHT22;55902;-37.980;-63.602;2022-08-19T07:42:10;5.20;72.60
59961;DHT22;55902;-37.980;-63.602;2022-08-19T07:44:41;5.20;72.70
59961;DHT22;55902;-37.980;-63.602;2022-08-19T07:47:08;5.20;72.30
59961;DHT22;55902;-37.980;-63.602;2022-08-19T07:49:38;5.20;71.20
59961;DHT22;55902;-37.980;-63.602;2022-08-19T07:52:08;5.30;70.40
59961;DHT22;55902;-37.980;-63.602;2022-08-19T07:54:39;5.30;71.80
59961;DHT22;55902;-37.980;-63.602;2022-08-19T07:57:08;5.30;71.40
59961;DHT22;55902;-37.980;-63.602;2022-08-19T07:59:35;5.30;70.90
59961;DHT22;55902;-37.980;-63.602;2022-08-19T08:02:06;5.30;72.20
59961;DHT22;55902;-37.980;-63.602;2022-08-19T08:04:34;5.30;72.90
59961;DHT22;55902;-37.980;-63.602;2022-08-19T08:07:19;5.30;72.90
59961;DHT22;55902;-37.980;-63.602;2022-08-19T08:10:06;5.20;73.00
59961;DHT22;55902;-37.980;-63.602;2022-08-19T08:12:38;5.20;74.40
59961;DHT22;55902;-37.980;-63.602;2022-08-19T08:15:13;5.10;77.60
59961;DHT22;55902;-37.980;-63.602;2022-08-19T08:17:45;5.00;78.90
59961;DHT22;55902;-37.980;-63.602;2022-08-19T08:20:15;4.90;79.70
59961;DHT22;55902;-37.980;-63.602;2022-08-19T08:22:46;4.90;79.40
59961;DHT22;55902;-37.980;-63.602;2022-08-19T08:25:31;5.00;77.40
59961;DHT22;55902;-37.980;-63.602;2022-08-19T08:27:58;5.10;76.60
59961;DHT22;55902;-37.980;-63.602;2022-08-19T08:30:29;5.10;75.80
59961;DHT22;55902;-37.980;-63.602;2022-08-19T08:32:56;5.20;76.40
59961;DHT22;55902;-37.980;-63.602;2022-08-19T08:35:27;5.20;76.70
59961;DHT22;55902;-37.980;-63.602;2022-08-19T08:37:54;5.20;77.10
59961;DHT22;55902;-37.980;-63.602;2022-08-19T08:40:34;5.10;77.70
59961;DHT22;55902;-37.980;-63.602;2022-08-19T08:48:52;5.00;76.20
59961;DHT22;55902;-37.980;-63.602;2022-08-19T08:51:32;4.90;76.50
59961;DHT22;55902;-37.980;-63.602;2022-08-19T08:54:05;4.90;76.20
59961;DHT22;55902;-37.980;-63.602;2022-08-19T08:56:33;5.00;75.00
59961;DHT22;55902;-37.980;-63.602;2022-08-19T08:59:05;5.00;74.70
59961;DHT22;55902;-37.980;-63.602;2022-08-19T09:01:34;5.00;74.90
59961;DHT22;55902;-37.980;-63.602;2022-08-19T09:04:07;5.00;74.00
59961;DHT22;55902;-37.980;-63.602;2022-08-19T09:06:39;5.10;73.80
59961;DHT22;55902;-37.980;-63.602;2022-08-19T09:17:12;4.80;77.90
59961;DHT22;55902;-37.980;-63.602;2022-08-19T09:22:36;4.70;76.60
59961;DHT22;55902;-37.980;-63.602;2022-08-19T09:25:07;4.70;77.90
59961;DHT22;55902;-37.980;-63.602;2022-08-19T09:27:35;4.70;78.40
59961;DHT22;55902;-37.980;-63.602;2022-08-19T09:30:05;4.70;78.40
59961;DHT22;55902;-37.980;-63.602;2022-08-19T09:32:33;4.60;79.30
59961;DHT22;55902;-37.980;-63.602;2022-08-19T09:35:00;4.60;79.90
59961;DHT22;55902;-37.980;-63.602;2022-08-19T09:37:28;4.50;80.90
59961;DHT22;55902;-37.980;-63.602;2022-08-19T09:39:55;4.60;80.30
59961;DHT22;55902;-37.980;-63.602;2022-08-19T09:42:21;4.40;81.50
59961;DHT22;55902;-37.980;-63.602;2022-08-19T09:44:51;4.30;82.00
59961;DHT22;55902;-37.980;-63.602;2022-08-19T09:47:18;4.30;81.80
59961;DHT22;55902;-37.980;-63.602;2022-08-19T09:49:45;4.40;81.60
59961;DHT22;55902;-37.980;-63.602;2022-08-19T09:52:14;4.40;82.60
59961;DHT22;55902;-37.980;-63.602;2022-08-19T09:54:42;4.30;83.40
59961;DHT22;55902;-37.980;-63.602;2022-08-19T09:57:31;4.30;84.00
59961;DHT22;55902;-37.980;-63.602;2022-08-19T09:59:58;4.30;83.60
59961;DHT22;55902;-37.980;-63.602;2022-08-19T10:05:36;4.20;82.80
59961;DHT22;55902;-37.980;-63.602;2022-08-19T10:08:22;4.10;83.60
59961;DHT22;55902;-37.980;-63.602;2022-08-19T10:10:49;4.20;82.10
59961;DHT22;55902;-37.980;-63.602;2022-08-19T10:13:19;4.10;83.10
59961;DHT22;55902;-37.980;-63.602;2022-08-19T10:15:52;3.90;84.70
59961;DHT22;55902;-37.980;-63.602;2022-08-19T10:18:21;3.80;85.10
59961;DHT22;55902;-37.980;-63.602;2022-08-19T10:20:49;3.70;85.80
59961;DHT22;55902;-37.980;-63.602;2022-08-19T10:23:18;3.80;85.00
59961;DHT22;55902;-37.980;-63.602;2022-08-19T10:25:46;3.80;84.30
59961;DHT22;55902;-37.980;-63.602;2022-08-19T10:28:13;3.70;85.10
59961;DHT22;55902;-37.980;-63.602;2022-08-19T10:31:14;3.80;85.00
59961;DHT22;55902;-37.980;-63.602;2022-08-19T10:33:42;3.80;84.60
59961;DHT22;55902;-37.980;-63.602;2022-08-19T10:36:13;3.80;85.70
59961;DHT22;55902;-37.980;-63.602;2022-08-19T10:38:44;3.80;85.80
59961;DHT22;55902;-37.980;-63.602;2022-08-19T10:41:17;3.90;84.60
59961;DHT22;55902;-37.980;-63.602;2022-08-19T10:43:44;3.80;85.20
59961;DHT22;55902;-37.980;-63.602;2022-08-19T10:46:14;3.80;85.90
59961;DHT22;55902;-37.980;-63.602;2022-08-19T10:48:43;3.80;85.40
59961;DHT22;55902;-37.980;-63.602;2022-08-19T10:51:12;3.80;85.90
59961;DHT22;55902;-37.980;-63.602;2022-08-19T10:53:58;3.80;86.50
59961;DHT22;55902;-37.980;-63.602;2022-08-19T10:56:26;3.90;85.90
59961;DHT22;55902;-37.980;-63.602;2022-08-19T10:59:12;3.90;86.20
59961;DHT22;55902;-37.980;-63.602;2022-08-19T11:01:41;3.80;87.40
59961;DHT22;55902;-37.980;-63.602;2022-08-19T11:04:08;3.80;86.50
59961;DHT22;55902;-37.980;-63.602;2022-08-19T11:06:38;3.80;87.20
59961;DHT22;55902;-37.980;-63.602;2022-08-19T11:09:05;3.80;87.30
59961;DHT22;55902;-37.980;-63.602;2022-08-19T11:11:32;3.80;87.40
59961;DHT22;55902;-37.980;-63.602;2022-08-19T11:13:59;3.80;87.20
59961;DHT22;55902;-37.980;-63.602;2022-08-19T11:16:29;4.00;85.70
59961;DHT22;55902;-37.980;-63.602;2022-08-19T11:18:58;3.90;86.30
59961;DHT22;55902;-37.980;-63.602;2022-08-19T11:21:31;4.00;85.00
59961;DHT22;55902;-37.980;-63.602;2022-08-19T11:24:01;4.10;84.60
59961;DHT22;55902;-37.980;-63.602;2022-08-19T11:26:30;4.10;84.30
59961;DHT22;55902;-37.980;-63.602;2022-08-19T11:28:58;4.20;84.60
59961;DHT22;55902;-37.980;-63.602;2022-08-19T11:31:28;4.20;84.80
59961;DHT22;55902;-37.980;-63.602;2022-08-19T11:33:58;4.30;84.50
59961;DHT22;55902;-37.980;-63.602;2022-08-19T11:36:26;4.30;86.00
59961;DHT22;55902;-37.980;-63.602;2022-08-19T11:38:57;4.30;85.30
59961;DHT22;55902;-37.980;-63.602;2022-08-19T11:42:06;4.30;85.90
59961;DHT22;55902;-37.980;-63.602;2022-08-19T11:44:53;4.50;85.30
59961;DHT22;55902;-37.980;-63.602;2022-08-19T11:47:20;4.70;84.90
59961;DHT22;55902;-37.980;-63.602;2022-08-19T11:49:47;4.80;85.30
59961;DHT22;55902;-37.980;-63.602;2022-08-19T11:52:14;4.90;86.20
59961;DHT22;55902;-37.980;-63.602;2022-08-19T11:54:41;5.20;87.30
59961;DHT22;55902;-37.980;-63.602;2022-08-19T11:57:32;5.70;85.60
59961;DHT22;55902;-37.980;-63.602;2022-08-19T12:00:23;6.40;83.60
59961;DHT22;55902;-37.980;-63.602;2022-08-19T12:02:54;7.00;81.90
59961;DHT22;55902;-37.980;-63.602;2022-08-19T12:06:04;7.50;80.40
59961;DHT22;55902;-37.980;-63.602;2022-08-19T12:08:31;8.10;78.70
59961;DHT22;55902;-37.980;-63.602;2022-08-19T12:10:58;8.60;77.50
59961;DHT22;55902;-37.980;-63.602;2022-08-19T12:13:31;9.00;76.10
59961;DHT22;55902;-37.980;-63.602;2022-08-19T12:15:57;9.50;75.00
59961;DHT22;55902;-37.980;-63.602;2022-08-19T12:18:26;9.80;73.70
59961;DHT22;55902;-37.980;-63.602;2022-08-19T12:20:55;10.20;72.60
59961;DHT22;55902;-37.980;-63.602;2022-08-19T12:23:22;10.60;71.60
59961;DHT22;55902;-37.980;-63.602;2022-08-19T12:25:49;11.10;70.40
59961;DHT22;55902;-37.980;-63.602;2022-08-19T12:28:19;11.50;69.30
59961;DHT22;55902;-37.980;-63.602;2022-08-19T12:31:06;11.90;66.90
59961;DHT22;55902;-37.980;-63.602;2022-08-19T12:33:35;12.30;67.20
59961;DHT22;55902;-37.980;-63.602;2022-08-19T12:36:05;12.70;65.60
59961;DHT22;55902;-37.980;-63.602;2022-08-19T12:38:33;12.90;64.70
59961;DHT22;55902;-37.980;-63.602;2022-08-19T12:41:04;13.20;64.30
59961;DHT22;55902;-37.980;-63.602;2022-08-19T12:43:34;13.50;63.20
59961;DHT22;55902;-37.980;-63.602;2022-08-19T12:48:47;13.80;61.30
59961;DHT22;55902;-37.980;-63.602;2022-08-19T12:51:16;14.20;61.60
59961;DHT22;55902;-37.980;-63.602;2022-08-19T12:53:46;14.50;62.30
59961;DHT22;55902;-37.980;-63.602;2022-08-19T12:56:13;15.00;62.00
59961;DHT22;55902;-37.980;-63.602;2022-08-19T12:58:41;15.30;58.10
59961;DHT22;55902;-37.980;-63.602;2022-08-19T13:01:25;15.60;57.30
59961;DHT22;55902;-37.980;-63.602;2022-08-19T13:04:04;15.90;57.20
59961;DHT22;55902;-37.980;-63.602;2022-08-19T13:06:31;16.20;56.70
59961;DHT22;55902;-37.980;-63.602;2022-08-19T13:08:58;16.50;56.90
59961;DHT22;55902;-37.980;-63.602;2022-08-19T13:11:26;16.90;57.30
59961;DHT22;55902;-37.980;-63.602;2022-08-19T13:13:53;17.30;55.80
59961;DHT22;55902;-37.980;-63.602;2022-08-19T13:16:40;17.70;56.90
59961;DHT22;55902;-37.980;-63.602;2022-08-19T13:19:08;18.00;55.70
59961;DHT22;55902;-37.980;-63.602;2022-08-19T13:21:34;18.30;55.20
59961;DHT22;55902;-37.980;-63.602;2022-08-19T13:24:02;18.60;55.20
59961;DHT22;55902;-37.980;-63.602;2022-08-19T13:26:29;18.90;53.30
59961;DHT22;55902;-37.980;-63.602;2022-08-19T13:28:56;19.20;53.90
59961;DHT22;55902;-37.980;-63.602;2022-08-19T13:31:42;19.50;52.80
59961;DHT22;55902;-37.980;-63.602;2022-08-19T13:34:34;19.60;49.70
59961;DHT22;55902;-37.980;-63.602;2022-08-19T13:37:04;19.70;51.80
59961;DHT22;55902;-37.980;-63.602;2022-08-19T13:39:32;19.80;50.30
59961;DHT22;55902;-37.980;-63.602;2022-08-19T13:42:00;19.80;50.80
59961;DHT22;55902;-37.980;-63.602;2022-08-19T13:44:30;20.00;51.20
59961;DHT22;55902;-37.980;-63.602;2022-08-19T13:47:05;20.00;48.70
59961;DHT22;55902;-37.980;-63.602;2022-08-19T13:49:43;20.00;51.30
59961;DHT22;55902;-37.980;-63.602;2022-08-19T13:52:20;20.00;48.40
59961;DHT22;55902;-37.980;-63.602;2022-08-19T13:54:48;20.10;48.40
59961;DHT22;55902;-37.980;-63.602;2022-08-19T13:57:20;20.20;50.00
59961;DHT22;55902;-37.980;-63.602;2022-08-19T13:59:50;20.50;49.70
59961;DHT22;55902;-37.980;-63.602;2022-08-19T14:02:42;20.80;50.20
59961;DHT22;55902;-37.980;-63.602;2022-08-19T14:05:47;21.10;48.30
59961;DHT22;55902;-37.980;-63.602;2022-08-19T14:08:17;21.10;47.40
59961;DHT22;55902;-37.980;-63.602;2022-08-19T14:10:47;21.10;47.70
59961;DHT22;55902;-37.980;-63.602;2022-08-19T14:13:17;21.30;46.10
59961;DHT22;55902;-37.980;-63.602;2022-08-19T14:15:50;21.70;48.60
59961;DHT22;55902;-37.980;-63.602;2022-08-19T14:18:22;22.00;48.20
59961;DHT22;55902;-37.980;-63.602;2022-08-19T14:20:52;22.20;46.00
59961;DHT22;55902;-37.980;-63.602;2022-08-19T14:23:19;22.20;45.20
59961;DHT22;55902;-37.980;-63.602;2022-08-19T14:25:46;22.50;45.60
59961;DHT22;55902;-37.980;-63.602;2022-08-19T14:28:13;22.60;44.40
59961;DHT22;55902;-37.980;-63.602;2022-08-19T14:30:40;22.90;46.10
59961;DHT22;55902;-37.980;-63.602;2022-08-19T14:33:07;23.20;44.80
59961;DHT22;55902;-37.980;-63.602;2022-08-19T14:35:35;23.30;43.30
59961;DHT22;55902;-37.980;-63.602;2022-08-19T14:41:45;23.80;44.70
59961;DHT22;55902;-37.980;-63.602;2022-08-19T14:44:56;24.20;42.40
59961;DHT22;55902;-37.980;-63.602;2022-08-19T14:47:53;24.40;43.00
59961;DHT22;55902;-37.980;-63.602;2022-08-19T14:50:44;24.60;41.70
59961;DHT22;55902;-37.980;-63.602;2022-08-19T14:53:11;24.70;39.30
59961;DHT22;55902;-37.980;-63.602;2022-08-19T14:55:59;24.90;38.70
59961;DHT22;55902;-37.980;-63.602;2022-08-19T14:59:07;24.90;37.40
59961;DHT22;55902;-37.980;-63.602;2022-08-19T15:01:56;24.90;36.40
59961;DHT22;55902;-37.980;-63.602;2022-08-19T15:05:02;25.10;37.50
59961;DHT22;55902;-37.980;-63.602;2022-08-19T15:07:29;25.20;38.20
59961;DHT22;55902;-37.980;-63.602;2022-08-19T15:09:57;25.30;36.50
59961;DHT22;55902;-37.980;-63.602;2022-08-19T15:12:30;25.40;35.30
59961;DHT22;55902;-37.980;-63.602;2022-08-19T15:14:58;25.40;35.70
59961;DHT22;55902;-37.980;-63.602;2022-08-19T15:17:25;25.70;37.20
59961;DHT22;55902;-37.980;-63.602;2022-08-19T15:19:53;25.90;36.50
59961;DHT22;55902;-37.980;-63.602;2022-08-19T15:22:20;26.00;35.70
59961;DHT22;55902;-37.980;-63.602;2022-08-19T15:24:48;26.30;37.40
59961;DHT22;55902;-37.980;-63.602;2022-08-19T15:27:15;26.70;36.70
59961;DHT22;55902;-37.980;-63.602;2022-08-19T15:29:42;26.80;36.30
59961;DHT22;55902;-37.980;-63.602;2022-08-19T15:32:11;27.10;34.90
59961;DHT22;55902;-37.980;-63.602;2022-08-19T15:34:38;27.20;35.00
59961;DHT22;55902;-37.980;-63.602;2022-08-19T15:37:05;27.30;34.40
59961;DHT22;55902;-37.980;-63.602;2022-08-19T15:39:32;27.20;34.70
59961;DHT22;55902;-37.980;-63.602;2022-08-19T15:41:59;27.40;33.70
59961;DHT22;55902;-37.980;-63.602;2022-08-19T15:44:26;27.80;35.00
59961;DHT22;55902;-37.980;-63.602;2022-08-19T15:46:56;28.10;34.80
59961;DHT22;55902;-37.980;-63.602;2022-08-19T15:49:23;28.20;33.20
59961;DHT22;55902;-37.980;-63.602;2022-08-19T15:51:50;28.10;32.50
59961;DHT22;55902;-37.980;-63.602;2022-08-19T15:54:20;28.30;34.00